Time;durP1;ratioP1;P1;durP2;ratioP2;P2;SDS_P1;SDS_P2;PMS_P1;PMS_P2;Temp;Humidity;BMP_temperature;BMP_pressure;BME280_temperature;BME280_humidity;BME280_pressure;Samples;Min_cycle;Max_cycle;Signal;HPM_P1;HPM_P2
2023/01/05 00:01:28;;;;;;;0.90;0.90;;;16.80;54.40;;;;;;5065493;28;45244;-73
2023/01/05 00:03:55;;;;;;;1.50;1.00;;;16.80;54.30;;;;;;5066747;28;45192;-73
2023/01/05 00:06:22;;;;;;;0.85;0.82;;;16.80;54.40;;;;;;5066310;28;46766;-73
2023/01/05 00:08:49;;;;;;;1.20;1.10;;;16.80;54.40;;;;;;5066517;28;45164;-73
2023/01/05 00:24:59;;;;;;;0.75;0.70;;;16.80;54.40;;;;;;5066223;27;45198;-73
2023/01/05 00:27:26;;;;;;;0.90;0.90;;;16.80;54.40;;;;;;5066320;28;47348;-73
2023/01/05 00:29:54;;;;;;;1.20;1.10;;;16.80;54.40;;;;;;5066311;28;45401;-73
2023/01/05 00:32:21;;;;;;;0.90;0.82;;;16.80;54.40;;;;;;5066133;28;45132;-73
2023/01/05 00:34:49;;;;;;;0.80;0.80;;;16.80;54.40;;;;;;5066457;28;45122;-73
2023/01/05 00:37:16;;;;;;;0.63;0.63;;;16.70;54.40;;;;;;5066167;27;45409;-73
2023/01/05 00:39:43;;;;;;;0.60;0.60;;;16.80;54.40;;;;;;5066008;28;45236;-73
2023/01/05 00:42:09;;;;;;;1.75;1.00;;;16.70;54.40;;;;;;5066038;28;45225;-73
2023/01/05 00:44:36;;;;;;;1.02;0.88;;;16.80;54.50;;;;;;5066199;28;45326;-73
2023/01/05 00:47:05;;;;;;;0.70;0.70;;;16.70;54.50;;;;;;5065906;28;46385;-73
2023/01/05 00:49:31;;;;;;;1.02;0.85;;;16.70;54.50;;;;;;5066086;28;45341;-73
2023/01/05 00:51:58;;;;;;;0.80;0.80;;;16.70;54.40;;;;;;5065978;28;45266;-73
2023/01/05 00:54:25;;;;;;;1.00;0.82;;;16.70;54.40;;;;;;5065821;28;45253;-73
2023/01/05 00:56:52;;;;;;;0.70;0.70;;;16.80;54.50;;;;;;5065220;28;45245;-73
2023/01/05 00:59:19;;;;;;;0.93;0.70;;;16.70;54.50;;;;;;5065837;28;45122;-72
2023/01/05 01:01:46;;;;;;;0.80;0.80;;;16.70;54.50;;;;;;5065730;28;45365;-73
2023/01/05 01:04:14;;;;;;;0.60;0.60;;;16.70;54.50;;;;;;5065884;28;45410;-73
2023/01/05 01:06:41;;;;;;;0.80;0.80;;;16.70;54.50;;;;;;5065838;27;47333;-72
2023/01/05 01:09:08;;;;;;;0.60;0.60;;;16.70;54.50;;;;;;5065698;28;45121;-73
2023/01/05 01:11:35;;;;;;;0.60;0.60;;;16.70;54.50;;;;;;5065221;28;45140;-73
2023/01/05 01:14:02;;;;;;;0.80;0.80;;;16.70;55.10;;;;;;5065310;28;45292;-74
2023/01/05 01:16:28;;;;;;;1.13;0.77;;;16.70;54.50;;;;;;5065694;28;46659;-73
2023/01/05 01:18:56;;;;;;;0.80;0.80;;;16.70;54.60;;;;;;5065596;28;45209;-73
2023/01/05 01:21:24;;;;;;;0.73;0.73;;;16.70;54.60;;;;;;5065653;28;45136;-73
2023/01/05 01:23:51;;;;;;;0.70;0.70;;;16.70;54.60;;;;;;5065771;28;45313;-73
2023/01/05 01:26:17;;;;;;;1.00;1.00;;;16.70;54.60;;;;;;5065280;27;45474;-72
2023/01/05 01:28:46;;;;;;;0.60;0.60;;;16.70;54.60;;;;;;5065484;28;45266;-73
2023/01/05 01:31:13;;;;;;;1.17;0.70;;;16.70;54.60;;;;;;5065563;27;45203;-73
2023/01/05 01:33:40;;;;;;;0.70;0.70;;;16.70;54.60;;;;;;5065531;28;45442;-73
2023/01/05 01:36:07;;;;;;;0.68;0.68;;;16.70;54.60;;;;;;5065412;28;45262;-74
2023/01/05 01:38:35;;;;;;;1.30;0.60;;;16.60;54.60;;;;;;5064602;28;45317;-73
2023/01/05 01:41:02;;;;;;;0.60;0.60;;;16.60;54.60;;;;;;5064739;28;45185;-72
2023/01/05 01:43:44;;;;;;;0.70;0.70;;;16.70;54.70;;;;;;5065717;27;45415;-73
2023/01/05 01:46:11;;;;;;;0.60;0.60;;;16.60;54.60;;;;;;5065064;28;46386;-72
2023/01/05 01:48:38;;;;;;;0.88;0.70;;;16.60;54.60;;;;;;5065168;28;45150;-73
2023/01/05 01:51:06;;;;;;;0.60;0.60;;;16.60;54.60;;;;;;5065517;28;45237;-72
2023/01/05 01:53:37;;;;;;;1.20;0.70;;;16.60;54.60;;;;;;5065271;28;45250;-72
2023/01/05 01:56:05;;;;;;;0.60;0.60;;;16.60;54.70;;;;;;5064857;28;46730;-73
2023/01/05 01:58:32;;;;;;;0.70;0.68;;;16.60;54.60;;;;;;5065024;28;45244;-73
2023/01/05 02:00:59;;;;;;;0.60;0.60;;;16.60;54.60;;;;;;5065039;28;45320;-73
2023/01/05 02:03:26;;;;;;;0.38;0.38;;;16.60;54.70;;;;;;5065399;27;45172;-73
2023/01/05 02:05:53;;;;;;;0.70;0.70;;;16.60;54.70;;;;;;5064985;28;47613;-73
2023/01/05 02:08:30;;;;;;;0.50;0.50;;;16.60;54.60;;;;;;5065299;28;45397;-72
2023/01/05 02:11:09;;;;;;;0.60;0.60;;;16.60;54.60;;;;;;5065081;28;45316;-73
2023/01/05 02:13:43;;;;;;;0.98;0.50;;;16.60;54.60;;;;;;5065188;27;45247;-72
2023/01/05 02:16:15;;;;;;;0.50;0.50;;;16.60;54.80;;;;;;5064755;28;45497;-73
2023/01/05 02:19:02;;;;;;;0.70;0.70;;;16.60;54.70;;;;;;5064861;28;45295;-73
2023/01/05 02:21:33;;;;;;;0.75;0.60;;;16.60;54.80;;;;;;5064849;27;45326;-73
2023/01/05 02:24:17;;;;;;;0.40;0.40;;;16.60;54.70;;;;;;5064858;28;45435;-73
2023/01/05 02:26:58;;;;;;;0.65;0.40;;;16.60;54.70;;;;;;5064483;28;46401;-72
2023/01/05 02:30:03;;;;;;;0.70;0.70;;;16.60;54.70;;;;;;5064679;28;44775;-73
2023/01/05 02:32:32;;;;;;;0.47;0.47;;;16.60;54.70;;;;;;5064797;28;45207;-73
2023/01/05 02:35:02;;;;;;;0.68;0.68;;;16.60;54.70;;;;;;5064922;28;45172;-73
2023/01/05 02:37:32;;;;;;;0.60;0.60;;;16.60;54.60;;;;;;5064766;28;46188;-73
2023/01/05 02:40:00;;;;;;;0.40;0.40;;;16.60;54.60;;;;;;5064744;28;45198;-73
2023/01/05 02:42:27;;;;;;;0.50;0.50;;;16.60;54.70;;;;;;5064525;28;45160;-72
2023/01/05 02:44:54;;;;;;;0.65;0.65;;;16.60;54.70;;;;;;5064818;27;45281;-73
2023/01/05 02:47:40;;;;;;;0.60;0.60;;;16.60;54.70;;;;;;5064615;28;46453;-73
2023/01/05 02:50:09;;;;;;;0.30;0.30;;;16.60;54.70;;;;;;5064478;27;45185;-73
2023/01/05 02:52:39;;;;;;;0.32;0.32;;;16.60;54.70;;;;;;5064645;28;45319;-72
2023/01/05 02:55:08;;;;;;;0.50;0.50;;;16.60;54.70;;;;;;5064726;28;45121;-73
2023/01/05 02:57:46;;;;;;;0.70;0.60;;;16.60;54.80;;;;;;5064265;28;46424;-72
2023/01/05 03:00:14;;;;;;;0.60;0.60;;;16.60;54.80;;;;;;5064280;28;45427;-73
2023/01/05 03:02:42;;;;;;;0.50;0.50;;;16.50;54.70;;;;;;5064153;27;45279;-73
2023/01/05 03:05:10;;;;;;;0.40;0.40;;;16.50;54.70;;;;;;5064572;28;45118;-74
2023/01/05 03:07:38;;;;;;;0.30;0.30;;;16.50;54.70;;;;;;5064285;28;46373;-73
2023/01/05 03:15:31;;;;;;;0.28;0.28;;;16.50;54.70;;;;;;5064574;27;45124;-73
2023/01/05 03:18:00;;;;;;;0.40;0.40;;;16.50;54.80;;;;;;5064075;28;45358;-73
2023/01/05 03:20:27;;;;;;;0.98;0.40;;;16.50;54.80;;;;;;5064210;28;45199;-72
2023/01/05 03:36:43;;;;;;;0.30;0.30;;;16.50;54.80;;;;;;5060616;28;45316;-73
2023/01/05 03:39:10;;;;;;;0.43;0.43;;;16.50;54.80;;;;;;5063599;28;45347;-73
2023/01/05 03:41:37;;;;;;;0.43;0.43;;;16.50;54.80;;;;;;5063620;28;45252;-73
2023/01/05 03:44:04;;;;;;;0.50;0.50;;;16.50;54.80;;;;;;5062921;28;45125;-73
2023/01/05 03:46:31;;;;;;;0.32;0.32;;;16.50;54.80;;;;;;5063564;28;45400;-73
2023/01/05 03:48:59;;;;;;;0.30;0.30;;;16.50;54.80;;;;;;5063013;28;46669;-72
2023/01/05 03:51:26;;;;;;;0.40;0.40;;;16.50;55.50;;;;;;5063149;28;45376;-72
2023/01/05 03:53:52;;;;;;;0.40;0.40;;;16.50;54.80;;;;;;5063346;28;45309;-73
2023/01/05 03:56:19;;;;;;;0.38;0.35;;;16.50;54.90;;;;;;5063465;28;45270;-73
2023/01/05 03:58:46;;;;;;;0.40;0.40;;;16.50;54.80;;;;;;5062810;28;46533;-72
2023/01/05 04:01:13;;;;;;;0.30;0.30;;;16.50;54.80;;;;;;5062800;28;45236;-71
2023/01/05 04:03:40;;;;;;;0.40;0.40;;;16.50;54.80;;;;;;5063107;28;45242;-73
2023/01/05 04:06:09;;;;;;;0.40;0.40;;;16.50;54.80;;;;;;5063192;28;45458;-73
2023/01/05 04:08:35;;;;;;;0.30;0.30;;;16.50;54.80;;;;;;5062668;28;46498;-71
2023/01/05 04:11:16;;;;;;;0.60;0.60;;;16.50;54.80;;;;;;5062868;28;45252;-72
2023/01/05 04:13:42;;;;;;;0.30;0.30;;;16.50;54.90;;;;;;5062732;28;45176;-73
2023/01/05 04:16:09;;;;;;;0.20;0.20;;;16.50;54.80;;;;;;5062759;28;45198;-71
2023/01/05 04:18:36;;;;;;;0.38;0.32;;;16.50;54.80;;;;;;5062468;28;46449;-71
2023/01/05 04:21:03;;;;;;;0.35;0.35;;;16.50;54.80;;;;;;5062827;28;45285;-71
2023/01/05 04:23:32;;;;;;;0.32;0.30;;;16.50;54.90;;;;;;5062489;27;45267;-71
2023/01/05 04:25:59;;;;;;;0.20;0.20;;;16.50;54.90;;;;;;5062857;28;45113;-72
2023/01/05 04:28:25;;;;;;;0.30;0.30;;;16.40;54.80;;;;;;5062236;28;46716;-73
2023/01/05 04:30:53;;;;;;;0.40;0.40;;;16.40;54.80;;;;;;5062472;28;45235;-72
2023/01/05 04:33:20;;;;;;;0.40;0.40;;;16.40;54.80;;;;;;5062654;27;45235;-73
2023/01/05 04:35:47;;;;;;;0.40;0.40;;;16.40;54.80;;;;;;5062695;28;45178;-72
2023/01/05 04:38:13;;;;;;;0.30;0.30;;;16.40;54.90;;;;;;5062474;28;46415;-72
2023/01/05 04:40:42;;;;;;;0.32;0.32;;;16.40;54.80;;;;;;5062356;28;45253;-71
2023/01/05 04:43:08;;;;;;;0.38;0.38;;;16.40;54.90;;;;;;5062225;28;45442;-73
2023/01/05 04:45:35;;;;;;;0.25;0.25;;;16.40;54.90;;;;;;5062561;28;45424;-73
2023/01/05 04:48:02;;;;;;;0.30;0.30;;;16.40;54.90;;;;;;5065005;28;46634;-71
2023/01/05 04:50:29;;;;;;;0.20;0.20;;;16.40;54.90;;;;;;5065441;28;45161;-74
2023/01/05 04:52:56;;;;;;;0.30;0.30;;;16.40;54.90;;;;;;5065528;27;45298;-72
2023/01/05 04:55:22;;;;;;;0.30;0.30;;;16.40;54.90;;;;;;5065937;28;45235;-73
2023/01/05 04:57:51;;;;;;;0.40;0.40;;;16.40;54.90;;;;;;5065261;28;46593;-72
2023/01/05 05:00:18;;;;;;;0.30;0.30;;;16.40;54.80;;;;;;5064953;28;45184;-72
2023/01/05 05:02:44;;;;;;;0.28;0.28;;;16.40;54.90;;;;;;5065422;27;45171;-72
2023/01/05 05:05:11;;;;;;;0.30;0.30;;;16.40;54.90;;;;;;5065695;28;45406;-73
2023/01/05 05:07:38;;;;;;;0.30;0.30;;;16.40;54.90;;;;;;5065055;28;46411;-73
2023/01/05 05:10:06;;;;;;;0.28;0.28;;;16.40;54.90;;;;;;5065084;28;45305;-73
2023/01/05 05:12:33;;;;;;;0.32;0.32;;;16.40;54.90;;;;;;5065419;28;45355;-73
2023/01/05 05:15:01;;;;;;;0.70;0.30;;;16.40;54.90;;;;;;5065590;28;45174;-72
2023/01/05 05:17:28;;;;;;;0.35;0.30;;;16.40;54.90;;;;;;5065023;28;45455;-72
2023/01/05 05:19:54;;;;;;;0.35;0.35;;;16.40;54.90;;;;;;5065025;28;45239;-73
2023/01/05 05:22:21;;;;;;;0.30;0.30;;;16.40;54.90;;;;;;5065066;28;45328;-72
2023/01/05 05:24:48;;;;;;;0.20;0.20;;;16.40;55.00;;;;;;5065287;28;45182;-72
2023/01/05 05:27:15;;;;;;;0.25;0.25;;;16.40;55.00;;;;;;5064775;28;46399;-72
2023/01/05 05:29:42;;;;;;;0.20;0.20;;;16.50;54.90;;;;;;5064991;28;45262;-73
2023/01/05 05:32:10;;;;;;;0.20;0.20;;;16.50;54.80;;;;;;5064983;28;45368;-72
2023/01/05 05:34:37;;;;;;;0.25;0.25;;;16.50;54.70;;;;;;5065339;27;45289;-72
2023/01/05 05:37:03;;;;;;;0.20;0.20;;;16.60;54.60;;;;;;5064842;28;45238;-73
2023/01/05 05:39:30;;;;;;;0.32;0.30;;;16.60;54.60;;;;;;5065200;28;45280;-72
2023/01/05 05:41:57;;;;;;;0.30;0.30;;;16.60;54.50;;;;;;5064526;28;45225;-72
2023/01/05 05:44:24;;;;;;;0.10;0.10;;;16.60;54.40;;;;;;5064854;28;45280;-72
2023/01/05 05:46:51;;;;;;;0.15;0.15;;;16.60;54.50;;;;;;5064811;28;46634;-72
2023/01/05 05:49:19;;;;;;;0.22;0.22;;;16.60;54.50;;;;;;5064734;28;45447;-72
2023/01/05 05:51:46;;;;;;;0.20;0.20;;;16.60;54.50;;;;;;5064935;28;45181;-73
2023/01/05 05:54:12;;;;;;;0.30;0.30;;;16.60;54.50;;;;;;5065264;28;45189;-73
2023/01/05 05:56:39;;;;;;;0.20;0.20;;;16.60;54.50;;;;;;5064791;28;45552;-72
2023/01/05 05:59:06;;;;;;;0.20;0.20;;;16.60;54.50;;;;;;5063848;28;45384;-72
2023/01/05 06:01:33;;;;;;;0.20;0.20;;;16.60;54.60;;;;;;5064834;28;45308;-73
2023/01/05 06:03:59;;;;;;;0.32;0.30;;;16.60;54.60;;;;;;5064759;28;45204;-73
2023/01/05 06:06:28;;;;;;;0.13;0.13;;;16.60;54.60;;;;;;5064568;27;46938;-72
2023/01/05 06:08:54;;;;;;;0.30;0.30;;;16.60;54.60;;;;;;5064352;28;45230;-72
2023/01/05 06:11:21;;;;;;;0.28;0.20;;;16.60;54.60;;;;;;5064735;28;45316;-72
2023/01/05 06:13:48;;;;;;;0.20;0.20;;;16.60;54.60;;;;;;5064771;28;45459;-72
2023/01/05 06:16:15;;;;;;;0.20;0.20;;;16.60;54.60;;;;;;5064530;28;45714;-73
2023/01/05 06:18:42;;;;;;;0.10;0.10;;;16.60;54.60;;;;;;5064424;28;45294;-73
2023/01/05 06:21:09;;;;;;;0.20;0.20;;;16.60;54.60;;;;;;5064772;28;45318;-72
2023/01/05 06:23:37;;;;;;;0.30;0.20;;;16.60;54.70;;;;;;5064421;28;45396;-72
2023/01/05 06:26:04;;;;;;;0.20;0.20;;;16.60;54.70;;;;;;5064079;27;45245;-72
2023/01/05 06:28:30;;;;;;;0.20;0.20;;;16.60;54.70;;;;;;5064208;28;45214;-72
2023/01/05 06:30:57;;;;;;;0.22;0.20;;;16.60;54.70;;;;;;5064427;28;45224;-72
2023/01/05 06:33:24;;;;;;;0.30;0.30;;;16.60;54.70;;;;;;5064571;28;45343;-72
2023/01/05 06:35:51;;;;;;;0.10;0.10;;;16.60;54.70;;;;;;5064274;28;45435;-72
2023/01/05 06:38:18;;;;;;;0.10;0.10;;;16.60;54.70;;;;;;5064240;28;45320;-72
2023/01/05 06:40:47;;;;;;;0.52;0.22;;;16.50;54.70;;;;;;5064278;28;45238;-72
2023/01/05 06:43:14;;;;;;;0.20;0.20;;;16.50;54.70;;;;;;5064309;28;45465;-72
2023/01/05 06:45:41;;;;;;;0.22;0.22;;;16.50;54.70;;;;;;5064057;28;46580;-72
2023/01/05 06:48:08;;;;;;;0.10;0.10;;;16.50;54.70;;;;;;5063932;28;45266;-73
2023/01/05 06:50:35;;;;;;;0.20;0.20;;;16.50;54.80;;;;;;5064442;28;45220;-72
2023/01/05 06:53:01;;;;;;;0.15;0.15;;;16.50;54.80;;;;;;5064351;28;45383;-73
2023/01/05 06:55:28;;;;;;;0.22;0.22;;;16.50;54.80;;;;;;5063909;27;46418;-72
2023/01/05 06:57:56;;;;;;;0.10;0.10;;;16.50;54.80;;;;;;5064058;28;45255;-73
2023/01/05 07:00:23;;;;;;;0.30;0.30;;;16.50;54.80;;;;;;5064128;28;45313;-72
2023/01/05 07:02:50;;;;;;;0.30;0.30;;;16.50;54.80;;;;;;5064323;28;45266;-72
2023/01/05 07:05:17;;;;;;;0.30;0.30;;;16.50;54.80;;;;;;5063775;28;46669;-72
2023/01/05 07:07:44;;;;;;;0.20;0.20;;;16.50;54.80;;;;;;5063364;28;45312;-72
2023/01/05 07:10:11;;;;;;;0.20;0.20;;;16.50;54.80;;;;;;5062346;28;45518;-72
2023/01/05 07:12:38;;;;;;;0.20;0.20;;;16.50;54.90;;;;;;5063952;28;45432;-72
2023/01/05 07:15:07;;;;;;;0.20;0.20;;;16.50;54.80;;;;;;5063427;28;45468;-73
2023/01/05 07:17:35;;;;;;;0.10;0.10;;;16.50;54.90;;;;;;5063513;27;45254;-73
2023/01/05 07:20:02;;;;;;;0.20;0.20;;;16.50;54.90;;;;;;5063685;28;45294;-73
2023/01/05 07:22:29;;;;;;;0.15;0.15;;;16.50;54.90;;;;;;5063495;28;45367;-73
2023/01/05 07:24:56;;;;;;;0.65;0.20;;;16.50;54.90;;;;;;5063482;28;45449;-73
2023/01/05 07:27:23;;;;;;;0.65;0.20;;;16.50;54.90;;;;;;5063443;28;45235;-73
2023/01/05 07:29:50;;;;;;;0.43;0.10;;;16.50;54.90;;;;;;5063564;28;45278;-73
2023/01/05 07:32:18;;;;;;;0.32;0.20;;;16.50;54.90;;;;;;5063458;28;45270;-73
2023/01/05 07:34:45;;;;;;;0.08;0.08;;;16.50;54.90;;;;;;5063273;28;45598;-73
2023/01/05 07:37:12;;;;;;;0.20;0.20;;;16.50;55.00;;;;;;5063394;28;45190;-74
2023/01/05 07:39:39;;;;;;;0.10;0.10;;;16.50;55.00;;;;;;5063457;28;45347;-74
2023/01/05 07:42:06;;;;;;;0.15;0.15;;;16.50;55.00;;;;;;5063241;28;45248;-74
2023/01/05 07:44:33;;;;;;;0.10;0.10;;;16.50;55.00;;;;;;5062919;28;48591;-73
2023/01/05 07:47:00;;;;;;;0.20;0.20;;;16.50;55.00;;;;;;5063262;28;45256;-73
2023/01/05 07:49:29;;;;;;;0.43;0.20;;;16.50;55.00;;;;;;5063241;28;45187;-72
2023/01/05 07:51:56;;;;;;;0.20;0.20;;;16.50;55.00;;;;;;5063001;28;45304;-74
2023/01/05 07:54:23;;;;;;;0.20;0.20;;;16.50;55.00;;;;;;5063064;28;45544;-74
2023/01/05 07:56:49;;;;;;;0.20;0.20;;;16.50;55.60;;;;;;5063001;28;45197;-74
2023/01/05 07:59:16;;;;;;;0.25;0.25;;;16.50;55.00;;;;;;5063309;28;45267;-73
2023/01/05 08:01:43;;;;;;;0.25;0.20;;;16.50;55.00;;;;;;5063297;28;45355;-71
2023/01/05 08:04:10;;;;;;;0.40;0.20;;;16.50;55.00;;;;;;5062800;28;45492;-71
2023/01/05 08:06:38;;;;;;;0.17;0.17;;;16.50;55.00;;;;;;5062934;28;45244;-71
2023/01/05 08:11:46;;;;;;;0.10;0.10;;;16.50;55.00;;;;;;5062446;27;45235;-73
2023/01/05 08:14:13;;;;;;;0.10;0.10;;;16.50;55.00;;;;;;5062586;27;46748;-73
2023/01/05 08:16:41;;;;;;;0.20;0.20;;;16.50;55.00;;;;;;5062795;28;45285;-71
2023/01/05 08:19:09;;;;;;;0.22;0.22;;;16.50;55.00;;;;;;5062898;28;45187;-73
2023/01/05 08:21:35;;;;;;;0.15;0.15;;;16.50;55.00;;;;;;5063695;28;45331;-73
2023/01/05 08:24:04;;;;;;;0.22;0.22;;;16.50;55.00;;;;;;5065691;28;47567;-73
2023/01/05 08:26:30;;;;;;;0.30;0.30;;;16.50;55.10;;;;;;5065760;28;45324;-73
2023/01/05 08:28:57;;;;;;;0.13;0.13;;;16.50;55.00;;;;;;5066263;28;45222;-73
2023/01/05 08:31:25;;;;;;;0.20;0.20;;;16.50;55.00;;;;;;5066430;28;45193;-73
2023/01/05 08:33:56;;;;;;;0.28;0.28;;;16.50;55.00;;;;;;5065519;28;46401;-73
2023/01/05 08:36:23;;;;;;;0.90;0.30;;;16.50;55.10;;;;;;5065904;27;45176;-72
2023/01/05 08:38:51;;;;;;;0.10;0.10;;;16.50;55.10;;;;;;5065841;28;45459;-73
2023/01/05 08:41:20;;;;;;;0.57;0.22;;;16.50;55.10;;;;;;5065486;28;45350;-72
2023/01/05 08:43:49;;;;;;;0.20;0.20;;;16.50;55.10;;;;;;5064876;28;45245;-72
2023/01/05 08:46:16;;;;;;;0.20;0.20;;;16.50;55.10;;;;;;5065715;28;45314;-72
2023/01/05 08:48:43;;;;;;;0.15;0.15;;;16.50;55.10;;;;;;5065732;28;45448;-73
2023/01/05 08:51:10;;;;;;;0.20;0.20;;;16.50;55.10;;;;;;5065738;28;45403;-73
2023/01/05 08:53:36;;;;;;;0.25;0.25;;;16.50;55.10;;;;;;5065235;28;45474;-73
2023/01/05 08:56:03;;;;;;;0.20;0.20;;;16.50;55.10;;;;;;5065449;28;45190;-73
2023/01/05 08:58:31;;;;;;;0.20;0.20;;;16.50;55.00;;;;;;5065686;27;45154;-73
2023/01/05 09:00:58;;;;;;;0.10;0.10;;;16.50;55.00;;;;;;5065751;28;45547;-73
2023/01/05 09:03:25;;;;;;;0.20;0.20;;;16.50;55.00;;;;;;5065166;28;45463;-73
2023/01/05 09:05:53;;;;;;;0.10;0.10;;;16.50;55.00;;;;;;5065291;28;45252;-71
2023/01/05 09:08:20;;;;;;;0.10;0.10;;;16.50;55.00;;;;;;5065422;28;45190;-73
2023/01/05 09:10:47;;;;;;;0.20;0.20;;;16.50;55.00;;;;;;5065515;28;45326;-73
2023/01/05 09:13:14;;;;;;;0.13;0.13;;;16.60;55.00;;;;;;5064978;28;46695;-74
2023/01/05 09:15:42;;;;;;;0.20;0.20;;;16.60;55.00;;;;;;5065053;28;45198;-71
2023/01/05 09:18:09;;;;;;;0.20;0.20;;;16.60;55.50;;;;;;5065179;28;45217;-74
2023/01/05 09:20:36;;;;;;;0.20;0.20;;;16.60;55.00;;;;;;5065406;27;45394;-73
2023/01/05 09:23:03;;;;;;;0.20;0.20;;;16.60;54.90;;;;;;5064557;28;45402;-73
2023/01/05 09:25:29;;;;;;;0.17;0.17;;;16.60;55.00;;;;;;5064539;28;45264;-72
2023/01/05 09:27:56;;;;;;;0.17;0.17;;;16.60;55.00;;;;;;5064704;27;45404;-73
2023/01/05 09:30:23;;;;;;;0.20;0.20;;;16.60;55.00;;;;;;5065001;28;45423;-73
2023/01/05 09:32:51;;;;;;;0.20;0.20;;;16.70;55.00;;;;;;5063703;28;46739;-73
2023/01/05 09:35:18;;;;;;;0.55;0.10;;;16.70;54.90;;;;;;5064391;28;45279;-73
2023/01/05 09:37:45;;;;;;;0.20;0.20;;;16.70;54.90;;;;;;5064994;28;45320;-73
2023/01/05 09:40:13;;;;;;;0.20;0.20;;;16.70;54.90;;;;;;5065386;28;45164;-73
2023/01/05 09:42:42;;;;;;;0.20;0.20;;;16.70;54.80;;;;;;5064577;28;45437;-73
2023/01/05 09:45:11;;;;;;;3.65;0.20;;;16.80;54.80;;;;;;5064710;28;45433;-73
2023/01/05 09:47:38;;;;;;;0.22;0.22;;;16.80;54.70;;;;;;5064710;27;45269;-73
2023/01/05 09:50:07;;;;;;;0.15;0.15;;;16.80;54.70;;;;;;5064794;28;45444;-73
2023/01/05 09:52:34;;;;;;;0.22;0.22;;;16.80;54.60;;;;;;5064345;28;45527;-73
2023/01/05 09:55:03;;;;;;;0.28;0.28;;;16.80;54.50;;;;;;5064708;28;45229;-73
2023/01/05 09:57:30;;;;;;;0.30;0.22;;;16.80;54.60;;;;;;5064691;28;45185;-73
2023/01/05 09:59:58;;;;;;;0.30;0.30;;;16.80;54.60;;;;;;5064881;28;45356;-74
2023/01/05 10:02:29;;;;;;;0.40;0.40;;;16.80;54.60;;;;;;5064377;28;45475;-72
2023/01/05 10:04:56;;;;;;;0.40;0.40;;;16.80;54.70;;;;;;5064368;28;45456;-72
2023/01/05 10:07:31;;;;;;;0.47;0.43;;;16.80;54.80;;;;;;5064138;28;45376;-73
2023/01/05 10:10:00;;;;;;;0.70;0.55;;;16.80;55.10;;;;;;5047271;28;45454;-72
2023/01/05 10:15:16;;;;;;;1.52;1.20;;;16.80;55.80;;;;;;5041571;28;45554;-72
2023/01/05 10:17:43;;;;;;;2.35;1.30;;;16.90;55.50;;;;;;5044399;28;45231;-73
2023/01/05 10:20:17;;;;;;;3.60;1.38;;;16.80;55.40;;;;;;5044432;28;45611;-72
2023/01/05 10:22:53;;;;;;;2.65;1.48;;;16.80;55.40;;;;;;5043787;28;46381;-73
2023/01/05 10:25:21;;;;;;;2.95;1.40;;;16.90;55.40;;;;;;5043877;28;45355;-73
2023/01/05 10:27:52;;;;;;;3.75;1.63;;;16.90;55.90;;;;;;5043411;28;45311;-72
2023/01/05 10:30:21;;;;;;;1.63;1.50;;;16.90;55.30;;;;;;5044421;28;45549;-72
2023/01/05 10:32:54;;;;;;;2.35;1.15;;;16.90;55.40;;;;;;5043703;28;46777;-72
2023/01/05 10:35:34;;;;;;;2.28;1.40;;;16.90;55.30;;;;;;5043839;28;45240;-72
2023/01/05 10:38:06;;;;;;;2.80;1.40;;;16.90;55.20;;;;;;5044128;28;45133;-72
2023/01/05 10:40:39;;;;;;;1.48;1.38;;;16.90;55.20;;;;;;5044212;28;45186;-73
2023/01/05 10:43:19;;;;;;;1.83;1.50;;;16.90;55.10;;;;;;5043712;28;45400;-73
2023/01/05 10:45:45;;;;;;;2.45;1.70;;;16.90;55.10;;;;;;5043658;28;45203;-72
2023/01/05 10:48:13;;;;;;;2.85;1.27;;;16.90;55.10;;;;;;5044037;28;45243;-72
2023/01/05 10:50:40;;;;;;;3.03;1.33;;;16.90;55.10;;;;;;5043973;28;45256;-73
2023/01/05 10:53:11;;;;;;;1.85;1.45;;;16.90;55.10;;;;;;5043731;28;46665;-73
2023/01/05 10:55:43;;;;;;;1.95;1.58;;;17.00;55.10;;;;;;5043585;28;45323;-73
2023/01/05 10:58:21;;;;;;;2.20;1.50;;;17.00;55.10;;;;;;5043860;28;45180;-73
2023/01/05 11:00:48;;;;;;;1.80;1.70;;;17.00;55.10;;;;;;5044008;28;45310;-73
2023/01/05 11:03:15;;;;;;;1.35;1.25;;;17.00;55.10;;;;;;5042967;28;45434;-73
2023/01/05 11:05:44;;;;;;;1.85;1.60;;;17.00;55.00;;;;;;5043557;28;45209;-72
2023/01/05 11:08:15;;;;;;;2.78;1.55;;;17.00;55.00;;;;;;5044087;28;45157;-72
2023/01/05 11:10:50;;;;;;;1.88;1.42;;;17.00;55.00;;;;;;5060362;27;45445;-73
2023/01/05 11:13:19;;;;;;;1.70;1.40;;;17.00;55.00;;;;;;5063772;28;45551;-73
2023/01/05 11:15:54;;;;;;;2.65;1.70;;;17.00;55.00;;;;;;5063594;28;45205;-72
2023/01/05 11:18:26;;;;;;;2.13;1.80;;;17.00;55.70;;;;;;5063789;28;45214;-73
2023/01/05 11:21:12;;;;;;;2.47;1.88;;;17.00;55.60;;;;;;5064185;28;45378;-73
2023/01/05 11:23:41;;;;;;;1.65;1.55;;;17.00;55.60;;;;;;5063532;28;46306;-73
2023/01/05 11:26:22;;;;;;;1.65;1.55;;;17.00;55.50;;;;;;5063632;28;45316;-73
2023/01/05 11:29:13;;;;;;;2.70;1.80;;;17.00;55.60;;;;;;5063497;27;45191;-73
2023/01/05 11:31:44;;;;;;;3.60;1.90;;;17.00;55.60;;;;;;5078254;27;45306;-73
2023/01/05 11:34:16;;;;;;;4.00;2.00;;;17.00;55.40;;;;;;5063479;28;47475;-72
2023/01/05 11:36:43;;;;;;;2.15;1.70;;;17.00;55.50;;;;;;5063372;28;45125;-73
2023/01/05 11:39:17;;;;;;;2.40;1.88;;;17.10;55.40;;;;;;5063521;28;45140;-73
2023/01/05 11:41:44;;;;;;;2.13;1.77;;;17.20;55.20;;;;;;5063704;28;45488;-73
2023/01/05 11:44:14;;;;;;;2.95;1.90;;;17.20;55.00;;;;;;5063075;28;45515;-73
2023/01/05 11:46:41;;;;;;;2.80;1.80;;;17.20;55.00;;;;;;5063231;27;45315;-73
2023/01/05 11:49:08;;;;;;;2.03;1.80;;;17.30;55.00;;;;;;5063303;28;45299;-73
2023/01/05 11:51:35;;;;;;;3.38;2.15;;;17.30;55.00;;;;;;5063489;28;45438;-73
2023/01/05 11:54:02;;;;;;;2.10;1.73;;;17.30;54.90;;;;;;5062981;28;45540;-73
2023/01/05 11:56:30;;;;;;;2.00;1.80;;;17.30;54.90;;;;;;5063652;28;45365;-73
2023/01/05 11:58:57;;;;;;;2.20;1.80;;;17.30;54.90;;;;;;5066521;28;45346;-73
2023/01/05 12:01:56;;;;;;;2.72;2.17;;;17.30;55.00;;;;;;5065983;27;45182;-72
2023/01/05 12:04:29;;;;;;;2.20;2.00;;;17.20;54.90;;;;;;5065985;28;46338;-73
2023/01/05 12:07:02;;;;;;;2.22;2.03;;;17.20;55.00;;;;;;5065990;28;45227;-72
2023/01/05 12:09:30;;;;;;;2.20;2.00;;;17.30;54.90;;;;;;5066183;28;45239;-73
2023/01/05 12:12:04;;;;;;;2.50;2.00;;;17.40;54.70;;;;;;5065932;28;45320;-72
2023/01/05 12:14:41;;;;;;;2.90;1.92;;;17.40;54.60;;;;;;5065864;28;45526;-74
2023/01/05 12:17:10;;;;;;;2.53;1.75;;;17.40;54.50;;;;;;5066195;28;45307;-72
2023/01/05 12:19:57;;;;;;;3.25;2.20;;;17.50;54.40;;;;;;5065438;28;45260;-73
2023/01/05 12:22:57;;;;;;;3.42;2.15;;;17.70;54.10;;;;;;5065988;28;45438;-73
2023/01/05 12:25:32;;;;;;;4.78;1.60;;;18.00;53.50;;;;;;5098536;27;46674;-73
2023/01/05 12:28:16;;;;;;;3.50;2.20;;;18.10;53.00;;;;;;5065299;27;45301;-73
2023/01/05 12:30:43;;;;;;;2.80;2.30;;;18.20;52.70;;;;;;5066081;28;45256;-73
2023/01/05 12:33:47;;;;;;;2.58;2.15;;;18.40;52.50;;;;;;5065902;28;45461;-73
2023/01/05 12:36:21;;;;;;;3.17;2.20;;;18.50;52.20;;;;;;5075449;27;46425;-73
2023/01/05 12:38:49;;;;;;;3.42;2.28;;;18.50;52.20;;;;;;5065794;28;45198;-72
2023/01/05 12:41:26;;;;;;;2.97;2.13;;;18.40;52.40;;;;;;5065844;28;45374;-73
2023/01/05 12:44:01;;;;;;;3.97;2.42;;;18.30;52.70;;;;;;5065554;28;45304;-72
2023/01/05 12:46:35;;;;;;;2.28;2.08;;;18.20;52.90;;;;;;5065288;28;46371;-73
2023/01/05 12:49:02;;;;;;;2.15;1.90;;;18.10;53.10;;;;;;5062856;28;45273;-73
2023/01/05 12:51:33;;;;;;;2.67;2.25;;;18.00;53.20;;;;;;5065594;28;45145;-73
2023/01/05 12:54:01;;;;;;;2.67;2.17;;;18.00;53.40;;;;;;5065644;28;45355;-74
2023/01/05 12:56:30;;;;;;;2.25;2.03;;;18.00;53.50;;;;;;5065221;28;46669;-72
2023/01/05 12:59:09;;;;;;;2.90;2.20;;;17.90;53.60;;;;;;5065399;28;45193;-73
2023/01/05 13:01:40;;;;;;;2.42;2.20;;;17.90;53.70;;;;;;5065302;28;45324;-73
2023/01/05 13:04:12;;;;;;;4.13;2.35;;;17.90;53.80;;;;;;5065573;28;45213;-73
2023/01/05 13:06:40;;;;;;;2.40;2.20;;;17.90;53.80;;;;;;5064988;27;46193;-73
2023/01/05 13:09:12;;;;;;;2.88;2.22;;;17.90;53.90;;;;;;5063709;28;45205;-73
2023/01/05 13:11:41;;;;;;;2.20;1.75;;;17.80;54.00;;;;;;5064895;28;45297;-73
2023/01/05 13:14:13;;;;;;;2.63;2.22;;;17.80;54.10;;;;;;5064908;28;45137;-72
2023/01/05 13:16:41;;;;;;;2.63;2.40;;;17.80;54.10;;;;;;5064703;28;46427;-73
2023/01/05 13:19:12;;;;;;;3.40;2.05;;;17.80;54.20;;;;;;5065485;28;45245;-72
2023/01/05 13:21:42;;;;;;;2.60;2.35;;;17.70;54.20;;;;;;5065337;27;45182;-73
2023/01/05 13:24:09;;;;;;;2.30;2.10;;;17.80;54.30;;;;;;5065417;28;45271;-72
2023/01/05 13:26:36;;;;;;;2.78;1.95;;;17.70;54.40;;;;;;5064870;28;46751;-72
2023/01/05 13:29:03;;;;;;;2.67;2.45;;;17.70;54.40;;;;;;5065060;28;45233;-73
2023/01/05 13:31:41;;;;;;;2.33;2.00;;;17.70;54.40;;;;;;5065139;28;45191;-73
2023/01/05 13:34:45;;;;;;;2.45;2.25;;;17.70;54.40;;;;;;5065257;28;45118;-72
2023/01/05 13:37:45;;;;;;;3.90;2.08;;;17.70;54.40;;;;;;5064852;27;46447;-73